Time;durP1;ratioP1;P1;durP2;ratioP2;P2;SDS_P1;SDS_P2;PMS_P1;PMS_P2;Temp;Humidity;BMP_temperature;BMP_pressure;BME280_temperature;BME280_humidity;BME280_pressure;Samples;Min_cycle;Max_cycle;Signal;HPM_P1;HPM_P2
2023/06/11 00:01:29;;;;;;;14.78;8.98;;;27.30;99.90;;;;;;1890131;73;21728;-71
2023/06/11 00:04:00;;;;;;;18.20;9.20;;;27.30;99.90;;;;;;1900988;73;21099;-70
2023/06/11 00:06:32;;;;;;;14.43;9.15;;;27.40;99.90;;;;;;1886433;75;21516;-71
2023/06/11 00:09:03;;;;;;;11.83;8.90;;;27.40;99.90;;;;;;1894202;76;21085;-69
2023/06/11 00:11:41;;;;;;;12.30;8.93;;;27.40;99.90;;;;;;1882093;76;21155;-70
2023/06/11 00:14:08;;;;;;;16.25;9.88;;;27.40;99.90;;;;;;1894559;75;21073;-70
2023/06/11 00:16:40;;;;;;;19.85;10.23;;;27.50;99.90;;;;;;1882267;76;21084;-71
2023/06/11 00:19:13;;;;;;;12.58;9.15;;;27.50;99.90;;;;;;1894321;76;21155;-71
2023/06/11 00:21:44;;;;;;;12.30;8.58;;;27.50;99.90;;;;;;1897516;75;21060;-70
2023/06/11 00:24:16;;;;;;;15.78;9.63;;;27.50;99.90;;;;;;1913934;75;21531;-70
2023/06/11 00:26:48;;;;;;;12.80;9.63;;;27.60;99.90;;;;;;1884886;75;21079;-71
2023/06/11 00:29:20;;;;;;;13.03;9.30;;;27.60;99.90;;;;;;1893815;76;21074;-69
2023/06/11 00:31:51;;;;;;;13.28;9.35;;;27.70;99.90;;;;;;1894698;75;21629;-70
2023/06/11 00:34:23;;;;;;;14.40;9.55;;;27.80;99.90;;;;;;1927593;74;21079;-70
2023/06/11 00:36:54;;;;;;;17.25;9.73;;;27.80;99.90;;;;;;1886115;75;21075;-69
2023/06/11 00:39:25;;;;;;;11.10;9.08;;;27.90;99.90;;;;;;1880701;76;21143;-69
2023/06/11 00:41:58;;;;;;;14.43;9.00;;;27.90;99.90;;;;;;1880636;76;21597;-70
2023/06/11 00:44:29;;;;;;;15.38;9.28;;;27.90;99.90;;;;;;1880921;76;21169;-70
2023/06/11 00:47:00;;;;;;;15.80;9.00;;;28.00;99.90;;;;;;1882030;75;21205;-70
2023/06/11 00:49:32;;;;;;;15.32;10.35;;;28.10;99.90;;;;;;1894295;76;21096;-69
2023/06/11 00:52:08;;;;;;;17.73;10.25;;;28.10;99.90;;;;;;1881999;76;21172;-70
2023/06/11 00:54:39;;;;;;;12.00;9.60;;;28.20;99.90;;;;;;1894070;75;21087;-71
2023/06/11 00:57:10;;;;;;;12.88;8.85;;;28.20;99.90;;;;;;1899550;75;21186;-69
2023/06/11 00:59:42;;;;;;;11.60;8.48;;;28.30;99.90;;;;;;1913772;75;21139;-70
2023/06/11 01:02:28;;;;;;;13.00;8.70;;;28.30;99.90;;;;;;1883348;75;21156;-70
2023/06/11 01:05:00;;;;;;;13.45;8.68;;;28.30;99.90;;;;;;1882051;76;21150;-71
2023/06/11 01:07:36;;;;;;;15.08;9.65;;;28.40;99.90;;;;;;1861776;77;21611;-70
2023/06/11 01:10:08;;;;;;;24.47;10.55;;;28.50;99.90;;;;;;1850395;76;21091;-71
2023/06/11 01:12:39;;;;;;;21.07;10.00;;;28.50;99.90;;;;;;1907644;75;21141;-71
2023/06/11 01:15:13;;;;;;;13.75;8.75;;;28.60;99.90;;;;;;1895474;74;21146;-71
2023/06/11 01:17:55;;;;;;;16.10;9.13;;;28.70;99.90;;;;;;1897790;73;21125;-71
2023/06/11 01:20:35;;;;;;;12.65;8.90;;;28.80;99.90;;;;;;1882554;76;21133;-71
2023/06/11 01:23:29;;;;;;;18.80;8.63;;;28.90;99.90;;;;;;1883590;76;21084;-69
2023/06/11 01:26:19;;;;;;;17.77;9.65;;;28.90;99.90;;;;;;1886982;75;21162;-70
2023/06/11 01:28:54;;;;;;;20.27;10.28;;;29.00;99.90;;;;;;1895388;74;21165;-72
2023/06/11 01:31:31;;;;;;;28.40;10.30;;;29.10;99.90;;;;;;1878691;75;21130;-71
2023/06/11 01:34:03;;;;;;;18.70;9.83;;;29.20;99.90;;;;;;1893876;76;21161;-71
2023/06/11 01:36:36;;;;;;;15.88;9.45;;;29.30;99.90;;;;;;1882791;75;21118;-70
2023/06/11 01:39:08;;;;;;;16.25;9.40;;;29.30;99.90;;;;;;1881735;76;21097;-73
2023/06/11 01:41:40;;;;;;;18.05;9.05;;;29.40;99.90;;;;;;1893441;75;21251;-75
2023/06/11 01:44:12;;;;;;;19.90;9.90;;;29.50;99.90;;;;;;1886992;75;21119;-74
2023/06/11 01:46:44;;;;;;;14.90;9.13;;;29.50;99.90;;;;;;1905249;75;21095;-75
2023/06/11 01:49:15;;;;;;;13.32;9.08;;;29.60;99.90;;;;;;1896237;73;21095;-74
2023/06/11 01:51:47;;;;;;;14.47;9.05;;;29.60;99.90;;;;;;1892938;75;21095;-75
2023/06/11 01:54:18;;;;;;;32.90;11.93;;;29.80;99.90;;;;;;1894688;74;21107;-73
2023/06/11 01:56:50;;;;;;;15.83;9.35;;;29.90;99.90;;;;;;1884366;72;21548;-75
2023/06/11 01:59:21;;;;;;;13.05;9.55;;;29.90;99.90;;;;;;1894232;76;21217;-74
2023/06/11 02:01:56;;;;;;;17.30;10.13;;;30.00;99.90;;;;;;1898207;74;21130;-74
2023/06/11 02:04:29;;;;;;;16.73;9.13;;;30.10;99.90;;;;;;1879402;75;21158;-72
2023/06/11 02:07:01;;;;;;;15.72;9.63;;;30.20;99.90;;;;;;1903992;73;21051;-73
2023/06/11 02:09:33;;;;;;;27.35;11.00;;;30.20;99.90;;;;;;1900673;75;21080;-72
2023/06/11 02:12:05;;;;;;;31.17;10.78;;;30.30;99.90;;;;;;1897902;74;21087;-73
2023/06/11 02:14:37;;;;;;;17.37;9.38;;;30.40;99.90;;;;;;1891271;76;21098;-71
2023/06/11 02:17:09;;;;;;;15.10;8.55;;;30.50;99.90;;;;;;1887064;75;21110;-72
2023/06/11 02:19:41;;;;;;;15.30;9.45;;;30.60;99.90;;;;;;1884302;75;21204;-70
2023/06/11 02:22:12;;;;;;;15.15;8.90;;;30.70;99.90;;;;;;1900045;74;21099;-70
2023/06/11 02:25:04;;;;;;;15.72;8.65;;;30.80;99.90;;;;;;1946318;74;21228;-73
2023/06/11 02:27:35;;;;;;;21.23;9.90;;;30.80;99.90;;;;;;1903758;74;21227;-74
2023/06/11 02:30:08;;;;;;;19.73;9.58;;;30.90;99.90;;;;;;1902563;75;21119;-73
2023/06/11 02:32:40;;;;;;;15.88;10.35;;;30.90;99.90;;;;;;1888020;75;21055;-73
2023/06/11 02:35:11;;;;;;;10.70;8.58;;;31.00;99.90;;;;;;1827111;78;21158;-73
2023/06/11 02:37:43;;;;;;;14.18;9.45;;;31.10;99.90;;;;;;1901117;75;21122;-74
2023/06/11 02:40:15;;;;;;;40.12;10.68;;;31.10;99.90;;;;;;1901403;73;21185;-73
2023/06/11 02:42:46;;;;;;;29.98;10.78;;;31.20;99.90;;;;;;1846714;77;21197;-71
2023/06/11 02:45:18;;;;;;;17.20;9.63;;;31.30;99.90;;;;;;1895670;75;21148;-73
2023/06/11 02:47:50;;;;;;;16.65;10.70;;;31.40;99.90;;;;;;1902194;75;21056;-73
2023/06/11 02:50:21;;;;;;;11.78;8.43;;;31.40;99.90;;;;;;1904976;75;21118;-72
2023/06/11 02:52:52;;;;;;;20.62;9.93;;;31.50;99.90;;;;;;1884277;75;21165;-73
2023/06/11 02:55:24;;;;;;;14.93;8.83;;;31.60;99.90;;;;;;1905079;75;21126;-75
2023/06/11 02:57:55;;;;;;;11.60;8.15;;;31.60;99.90;;;;;;1898557;74;21083;-69
2023/06/11 03:00:28;;;;;;;17.02;9.10;;;31.70;99.90;;;;;;1896107;75;21099;-71
2023/06/11 03:02:59;;;;;;;13.18;8.85;;;31.70;99.90;;;;;;1906260;75;21094;-72
2023/06/11 03:05:30;;;;;;;19.70;9.28;;;31.70;99.90;;;;;;1898160;74;21541;-70
2023/06/11 03:08:02;;;;;;;12.75;8.78;;;31.70;99.90;;;;;;1888209;74;21133;-74
2023/06/11 03:10:34;;;;;;;18.87;9.45;;;31.70;99.90;;;;;;1883490;73;21392;-75
2023/06/11 03:13:06;;;;;;;20.57;9.85;;;31.80;99.90;;;;;;1888554;75;21676;-75
2023/06/11 03:15:37;;;;;;;13.53;9.50;;;31.80;99.90;;;;;;1884649;75;21196;-74
2023/06/11 03:18:08;;;;;;;16.45;10.43;;;31.90;99.90;;;;;;1896768;73;21110;-72
2023/06/11 03:20:39;;;;;;;25.43;9.58;;;31.90;99.90;;;;;;1901218;74;21247;-72
2023/06/11 03:23:11;;;;;;;18.57;9.05;;;31.90;99.90;;;;;;1903375;75;21695;-73
2023/06/11 03:25:43;;;;;;;14.40;8.50;;;32.00;99.90;;;;;;1898032;75;21133;-72
2023/06/11 03:28:15;;;;;;;14.13;9.05;;;32.00;99.90;;;;;;1898765;75;21068;-75
2023/06/11 03:30:46;;;;;;;18.75;9.05;;;32.00;99.90;;;;;;1908348;75;21097;-73
2023/06/11 03:33:17;;;;;;;14.87;8.63;;;31.90;99.90;;;;;;1915882;74;21103;-73
2023/06/11 03:35:49;;;;;;;12.03;8.13;;;31.90;99.90;;;;;;1894687;74;21108;-73
2023/06/11 03:38:20;;;;;;;15.25;8.93;;;31.90;99.90;;;;;;1905599;74;21114;-73
2023/06/11 03:40:52;;;;;;;16.15;8.88;;;32.00;99.90;;;;;;1904531;74;21079;-71
2023/06/11 03:43:23;;;;;;;14.38;8.63;;;32.00;99.90;;;;;;1892772;75;21135;-71
2023/06/11 03:45:55;;;;;;;14.95;9.05;;;32.10;99.90;;;;;;1893825;74;21151;-73
2023/06/11 03:48:27;;;;;;;17.32;9.23;;;32.20;99.90;;;;;;1887372;75;21723;-72
2023/06/11 03:50:59;;;;;;;25.60;9.98;;;32.20;99.90;;;;;;1900762;74;21212;-75
2023/06/11 03:53:32;;;;;;;19.05;9.08;;;32.20;99.90;;;;;;1899135;75;21487;-73
2023/06/11 03:56:03;;;;;;;16.48;9.13;;;32.10;99.90;;;;;;1904086;75;21546;-74
2023/06/11 03:58:35;;;;;;;18.80;9.38;;;32.10;99.90;;;;;;1915962;74;21102;-81
2023/06/11 04:01:06;;;;;;;15.13;8.55;;;32.20;99.90;;;;;;1907376;75;21634;-79
2023/06/11 04:03:37;;;;;;;12.68;8.68;;;32.30;99.90;;;;;;1889764;75;21522;-81
2023/06/11 04:06:08;;;;;;;16.97;8.80;;;32.40;99.90;;;;;;1901783;75;21173;-82
2023/06/11 04:08:39;;;;;;;19.27;8.68;;;32.50;99.60;;;;;;1873049;75;21040;-81
2023/06/11 04:11:11;;;;;;;12.80;8.78;;;32.60;99.50;;;;;;1904596;75;21185;-82
2023/06/11 04:13:42;;;;;;;13.98;9.38;;;32.60;99.50;;;;;;1907165;75;21692;-80
2023/06/11 04:16:13;;;;;;;35.28;11.55;;;32.70;99.20;;;;;;1921370;74;21188;-81
2023/06/11 04:18:47;;;;;;;19.05;8.58;;;32.80;99.70;;;;;;1855090;77;21212;-81
2023/06/11 04:21:17;;;;;;;13.08;7.95;;;32.90;99.10;;;;;;1907051;75;21216;-81
2023/06/11 04:23:48;;;;;;;16.60;8.93;;;33.20;99.20;;;;;;1904617;75;21182;-82
2023/06/11 04:26:19;;;;;;;16.80;8.70;;;33.10;98.30;;;;;;1905388;75;21072;-82
2023/06/11 04:28:51;;;;;;;13.80;8.75;;;33.20;98.40;;;;;;1905353;75;21123;-82
2023/06/11 04:31:26;;;;;;;16.65;8.35;;;33.30;98.30;;;;;;1905553;75;21216;-82
2023/06/11 04:34:02;;;;;;;10.78;8.05;;;33.40;98.00;;;;;;1905735;75;21634;-81
2023/06/11 04:36:30;;;;;;;14.18;8.43;;;33.50;97.30;;;;;;1905658;75;21620;-82
2023/06/11 04:39:04;;;;;;;10.60;8.28;;;33.50;96.60;;;;;;1905485;75;21134;-81
2023/06/11 04:41:36;;;;;;;18.00;8.90;;;33.40;97.30;;;;;;1905282;75;21610;-82
2023/06/11 04:44:06;;;;;;;14.25;8.83;;;33.30;97.00;;;;;;1905611;75;21241;-81
2023/06/11 04:46:38;;;;;;;12.53;8.43;;;33.30;96.90;;;;;;1905771;75;21147;-81
2023/06/11 04:49:09;;;;;;;15.98;9.40;;;33.30;97.00;;;;;;1905513;75;21095;-80
2023/06/11 04:51:40;;;;;;;17.27;9.58;;;33.30;97.90;;;;;;1905564;75;21072;-81
2023/06/11 04:54:11;;;;;;;17.65;9.53;;;33.40;97.70;;;;;;1905875;75;21519;-81
2023/06/11 04:56:43;;;;;;;15.88;9.18;;;33.40;97.40;;;;;;1906014;75;21134;-80
2023/06/11 04:59:14;;;;;;;15.80;9.70;;;33.50;97.60;;;;;;1905716;75;21052;-80
2023/06/11 05:01:50;;;;;;;16.65;10.08;;;33.60;97.10;;;;;;1911950;74;21188;-81
2023/06/11 05:04:21;;;;;;;14.35;10.25;;;33.60;97.80;;;;;;1913307;75;21122;-81
2023/06/11 05:06:54;;;;;;;16.27;10.35;;;33.50;97.40;;;;;;1876393;76;21157;-82
2023/06/11 05:09:25;;;;;;;12.23;8.90;;;33.40;97.10;;;;;;1906030;75;21111;-79
2023/06/11 05:11:57;;;;;;;14.10;9.63;;;33.40;96.70;;;;;;1906030;75;21161;-79
2023/06/11 05:14:28;;;;;;;16.23;9.88;;;33.40;96.40;;;;;;1905918;75;21212;-80
2023/06/11 05:16:59;;;;;;;11.05;8.75;;;33.40;96.30;;;;;;1906048;75;21075;-80
2023/06/11 05:19:31;;;;;;;12.68;8.75;;;33.30;97.10;;;;;;1908637;75;21566;-80
2023/06/11 05:22:02;;;;;;;15.60;9.28;;;33.40;97.10;;;;;;1906021;75;21130;-80
2023/06/11 05:24:33;;;;;;;13.18;8.53;;;33.50;96.60;;;;;;1906068;75;21511;-80
2023/06/11 05:27:06;;;;;;;11.97;9.45;;;33.50;97.10;;;;;;1906224;75;21135;-80
2023/06/11 05:29:37;;;;;;;14.85;8.43;;;33.50;97.70;;;;;;1906044;75;21154;-81
2023/06/11 05:32:10;;;;;;;12.35;9.20;;;33.40;96.40;;;;;;1905681;75;21522;-81
2023/06/11 05:34:43;;;;;;;16.48;8.98;;;33.50;97.10;;;;;;1906236;75;21165;-80
2023/06/11 05:37:14;;;;;;;12.47;9.10;;;33.50;96.90;;;;;;1906229;75;21070;-80
2023/06/11 05:39:46;;;;;;;10.10;8.73;;;33.60;96.80;;;;;;1906459;75;21445;-82
2023/06/11 05:42:17;;;;;;;17.45;9.28;;;33.70;96.80;;;;;;1906418;75;21138;-80
2023/06/11 05:44:48;;;;;;;13.50;8.88;;;33.90;95.90;;;;;;1906211;75;21550;-81
2023/06/11 05:47:20;;;;;;;12.90;8.38;;;33.90;96.40;;;;;;1906257;75;21092;-80
2023/06/11 05:49:51;;;;;;;17.62;8.93;;;34.00;95.80;;;;;;1906376;75;21146;-80
2023/06/11 05:52:23;;;;;;;12.18;8.00;;;34.00;95.80;;;;;;1906447;75;21528;-81
2023/06/11 05:54:54;;;;;;;12.13;7.62;;;34.00;95.30;;;;;;1906544;75;21169;-81
2023/06/11 05:57:26;;;;;;;14.28;7.72;;;34.10;95.00;;;;;;1906395;75;21142;-82
2023/06/11 05:59:57;;;;;;;12.47;7.05;;;34.20;95.10;;;;;;1906350;75;21621;-80
2023/06/11 06:02:28;;;;;;;10.95;7.70;;;34.20;95.10;;;;;;1906279;75;21135;-80
2023/06/11 06:05:00;;;;;;;12.30;6.85;;;34.20;94.50;;;;;;1906416;75;21117;-80
2023/06/11 06:07:33;;;;;;;8.90;6.37;;;34.10;95.30;;;;;;1906571;75;21060;-81
2023/06/11 06:10:04;;;;;;;12.15;7.05;;;34.10;95.70;;;;;;1906324;75;21149;-81
2023/06/11 06:12:36;;;;;;;21.35;7.78;;;33.90;96.10;;;;;;1906368;75;21072;-81
2023/06/11 06:15:08;;;;;;;24.65;8.35;;;33.80;96.00;;;;;;1906468;75;21107;-81
2023/06/11 06:17:39;;;;;;;16.57;7.22;;;33.60;96.00;;;;;;1906347;75;21076;-81
2023/06/11 06:23:04;;;;;;;13.00;7.55;;;33.50;98.70;;;;;;1852419;77;21169;-80
2023/06/11 06:25:37;;;;;;;18.52;9.53;;;33.40;97.70;;;;;;1883594;76;21624;-80
2023/06/11 06:28:08;;;;;;;13.10;7.20;;;33.40;97.50;;;;;;1886608;76;21083;-79
2023/06/11 06:30:39;;;;;;;11.45;6.85;;;33.40;97.40;;;;;;1879331;76;21092;-79
2023/06/11 06:33:11;;;;;;;18.90;7.85;;;33.30;97.40;;;;;;1883550;76;21083;-79
2023/06/11 06:35:43;;;;;;;12.70;7.17;;;33.30;96.60;;;;;;1881491;76;21174;-80
2023/06/11 06:38:14;;;;;;;16.90;7.33;;;33.30;96.40;;;;;;1880616;76;21099;-79
2023/06/11 06:40:46;;;;;;;17.60;7.80;;;33.30;96.70;;;;;;1884228;76;21122;-80
2023/06/11 06:43:17;;;;;;;12.95;7.20;;;33.30;96.90;;;;;;1884369;76;21080;-80
2023/06/11 06:45:49;;;;;;;16.85;7.65;;;33.40;96.70;;;;;;1881172;76;21099;-81
2023/06/11 06:48:21;;;;;;;18.77;7.47;;;33.40;97.00;;;;;;1883435;76;21188;-80
2023/06/11 06:50:52;;;;;;;24.92;8.00;;;33.50;96.60;;;;;;1884818;76;21060;-81
2023/06/11 06:53:23;;;;;;;15.63;8.58;;;33.50;96.50;;;;;;1884562;76;21091;-81
2023/06/11 06:55:55;;;;;;;14.23;8.18;;;33.50;97.00;;;;;;1879175;76;21072;-80
2023/06/11 06:58:28;;;;;;;15.60;8.10;;;33.50;96.10;;;;;;1881288;76;21149;-80
2023/06/11 07:00:59;;;;;;;10.20;7.17;;;33.50;96.30;;;;;;1884052;75;21228;-80
2023/06/11 07:03:33;;;;;;;13.32;6.80;;;33.40;95.80;;;;;;1883640;76;21134;-81
2023/06/11 07:06:04;;;;;;;9.73;7.28;;;33.30;95.60;;;;;;1883787;76;21142;-81
2023/06/11 07:08:35;;;;;;;15.53;7.12;;;33.30;96.00;;;;;;1888277;74;21087;-81
2023/06/11 07:11:06;;;;;;;19.48;7.87;;;33.20;96.40;;;;;;1885062;74;21168;-80
2023/06/11 07:13:37;;;;;;;13.75;7.87;;;33.20;96.40;;;;;;1884187;74;21137;-80
2023/06/11 07:16:09;;;;;;;20.82;8.85;;;33.20;95.80;;;;;;1888243;74;21092;-80
2023/06/11 07:18:40;;;;;;;17.20;7.62;;;33.20;95.80;;;;;;1883613;76;21154;-80
2023/06/11 07:21:12;;;;;;;24.90;10.65;;;33.20;95.90;;;;;;1882007;75;21146;-80
2023/06/11 07:23:44;;;;;;;11.90;9.08;;;33.20;96.00;;;;;;1881946;76;21119;-79
2023/06/11 07:26:17;;;;;;;15.35;8.28;;;33.20;95.90;;;;;;1882399;76;21139;-80
2023/06/11 07:28:49;;;;;;;15.70;6.75;;;33.30;96.20;;;;;;1885011;76;21083;-81
2023/06/11 07:31:20;;;;;;;17.00;7.30;;;33.30;96.00;;;;;;1883874;76;21083;-81
2023/06/11 07:33:51;;;;;;;15.45;8.25;;;33.40;95.60;;;;;;1882750;76;21064;-81
2023/06/11 07:36:23;;;;;;;17.65;8.20;;;33.40;95.70;;;;;;1887004;76;21075;-80
2023/06/11 07:38:54;;;;;;;16.55;7.92;;;33.50;95.70;;;;;;1885413;76;21083;-83
2023/06/11 07:41:25;;;;;;;11.85;7.58;;;33.50;95.80;;;;;;1889456;76;21601;-82
2023/06/11 07:43:56;;;;;;;14.58;7.58;;;33.50;95.80;;;;;;1882710;76;21134;-81
2023/06/11 07:46:27;;;;;;;13.85;7.22;;;33.50;95.60;;;;;;1885090;76;21068;-82
2023/06/11 07:48:58;;;;;;;18.10;7.42;;;33.50;95.00;;;;;;1883200;76;21139;-83
2023/06/11 07:51:31;;;;;;;9.08;7.10;;;33.50;94.50;;;;;;1883155;76;21189;-82
2023/06/11 07:54:02;;;;;;;10.30;7.40;;;33.50;94.50;;;;;;1879637;76;21147;-82
2023/06/11 07:56:33;;;;;;;11.08;6.75;;;33.60;94.40;;;;;;1863951;76;21600;-82
2023/06/11 07:59:04;;;;;;;26.25;9.28;;;33.70;94.10;;;;;;1850141;77;21146;-82
2023/06/11 08:01:36;;;;;;;23.60;8.28;;;33.70;94.10;;;;;;1850291;77;21114;-82
2023/06/11 08:04:07;;;;;;;20.17;8.28;;;33.80;93.70;;;;;;1849587;77;21165;-79
2023/06/11 08:06:39;;;;;;;13.30;7.10;;;33.80;93.90;;;;;;1849645;77;21528;-82
2023/06/11 08:09:11;;;;;;;20.35;7.70;;;33.80;93.50;;;;;;1848703;77;21095;-81
2023/06/11 08:11:43;;;;;;;12.25;7.60;;;33.80;93.00;;;;;;1847943;77;21095;-80
2023/06/11 08:14:18;;;;;;;11.33;7.15;;;33.80;93.20;;;;;;1852447;77;21144;-81
2023/06/11 08:16:47;;;;;;;16.65;7.67;;;33.90;93.50;;;;;;1849059;77;21135;-81
2023/06/11 08:19:18;;;;;;;13.62;6.92;;;33.90;93.00;;;;;;1849616;77;21546;-81
2023/06/11 08:21:49;;;;;;;32.17;8.83;;;33.90;92.90;;;;;;1851206;77;21084;-81
2023/06/11 08:24:21;;;;;;;16.35;7.20;;;33.90;92.90;;;;;;1850196;77;21087;-80
2023/06/11 08:26:52;;;;;;;12.43;6.78;;;33.90;93.10;;;;;;1848710;77;21142;-80
2023/06/11 08:29:24;;;;;;;11.45;6.10;;;33.90;93.40;;;;;;1849113;77;21141;-80
2023/06/11 08:31:55;;;;;;;40.60;8.33;;;34.00;93.00;;;;;;1848177;77;21091;-80
2023/06/11 08:34:27;;;;;;;13.95;6.65;;;34.00;92.90;;;;;;1848717;77;21197;-81
2023/06/11 08:37:00;;;;;;;12.95;6.78;;;34.00;92.30;;;;;;1848504;77;21063;-80
2023/06/11 08:39:31;;;;;;;8.80;6.53;;;33.90;92.50;;;;;;1850189;77;21091;-82
2023/06/11 08:42:02;;;;;;;20.25;7.17;;;33.90;92.80;;;;;;1849570;77;21150;-82
2023/06/11 08:44:33;;;;;;;26.52;8.33;;;33.80;92.70;;;;;;1850806;77;21519;-83
2023/06/11 08:47:05;;;;;;;19.52;7.25;;;33.80;92.90;;;;;;1851881;77;21137;-82
2023/06/11 08:49:38;;;;;;;14.20;7.15;;;33.70;93.00;;;;;;1852849;77;21131;-83
2023/06/11 08:52:09;;;;;;;14.87;6.72;;;33.70;93.00;;;;;;1845435;77;21064;-82
2023/06/11 08:54:40;;;;;;;13.38;6.70;;;33.70;93.00;;;;;;1853854;77;21056;-83
2023/06/11 08:57:12;;;;;;;13.10;6.30;;;33.70;93.00;;;;;;1851997;77;21149;-82
2023/06/11 08:59:43;;;;;;;16.05;6.47;;;33.60;93.00;;;;;;1851852;77;21161;-83
2023/06/11 09:02:14;;;;;;;11.80;6.10;;;33.60;93.00;;;;;;1852736;77;21137;-83
2023/06/11 09:04:45;;;;;;;17.50;6.87;;;33.60;93.10;;;;;;1847667;77;21154;-83
2023/06/11 09:07:25;;;;;;;34.18;23.15;;;33.70;93.40;;;;;;1852536;77;21197;-85
2023/06/11 09:10:10;;;;;;;34.90;9.55;;;33.70;93.80;;;;;;1847997;77;21158;-83
2023/06/11 09:12:41;;;;;;;19.20;6.97;;;33.70;93.40;;;;;;1848719;77;21190;-83
2023/06/11 09:15:14;;;;;;;16.42;5.58;;;33.60;93.10;;;;;;1850531;77;21100;-83
2023/06/11 09:17:46;;;;;;;26.73;7.42;;;33.60;92.90;;;;;;1848743;77;21161;-81
2023/06/11 09:20:19;;;;;;;11.53;6.67;;;33.60;92.80;;;;;;1848342;77;21135;-82
2023/06/11 09:22:51;;;;;;;15.00;6.20;;;33.60;93.10;;;;;;1849464;77;21157;-83
2023/06/11 09:25:22;;;;;;;14.23;7.35;;;33.60;93.10;;;;;;1849862;77;21071;-82
2023/06/11 09:27:53;;;;;;;27.73;7.83;;;33.70;93.20;;;;;;1851417;77;21157;-83
2023/06/11 09:30:24;;;;;;;17.77;5.83;;;33.70;92.90;;;;;;1850349;77;21087;-83
2023/06/11 09:32:55;;;;;;;11.35;5.35;;;33.60;93.10;;;;;;1848210;77;21153;-83
2023/06/11 09:35:26;;;;;;;24.23;6.35;;;33.60;93.30;;;;;;1852584;77;21660;-82
2023/06/11 09:37:58;;;;;;;29.85;7.53;;;33.60;93.80;;;;;;1848377;77;21088;-80
2023/06/11 09:40:32;;;;;;;11.38;5.55;;;33.50;93.10;;;;;;1851011;77;21096;-80
2023/06/11 09:43:06;;;;;;;12.93;5.20;;;33.50;93.60;;;;;;1849298;77;21068;-81
2023/06/11 09:45:38;;;;;;;16.87;6.08;;;33.50;93.00;;;;;;1848780;77;21212;-81
2023/06/11 09:48:12;;;;;;;15.23;5.55;;;33.40;92.80;;;;;;1848146;77;21169;-79
2023/06/11 09:50:44;;;;;;;15.05;5.03;;;33.40;93.00;;;;;;1849375;77;21496;-82
2023/06/11 09:53:16;;;;;;;11.55;5.37;;;33.40;92.90;;;;;;1847653;77;21232;-81
2023/06/11 09:55:51;;;;;;;18.90;4.85;;;33.30;93.10;;;;;;1847802;77;21216;-83
2023/06/11 09:58:24;;;;;;;12.78;6.00;;;33.30;92.70;;;;;;1849432;77;21095;-84
2023/06/11 10:01:00;;;;;;;10.15;5.12;;;33.30;93.40;;;;;;1849207;77;21169;-83
2023/06/11 10:03:28;;;;;;;9.15;5.08;;;33.20;93.10;;;;;;1849306;77;21139;-82
2023/06/11 10:06:01;;;;;;;15.35;5.90;;;33.20;93.60;;;;;;1850175;77;21161;-84
2023/06/11 10:08:35;;;;;;;17.35;5.75;;;33.20;93.30;;;;;;1849556;77;21150;-84
2023/06/11 10:11:08;;;;;;;8.70;5.30;;;33.20;93.60;;;;;;1850625;76;21210;-72
2023/06/11 10:13:40;;;;;;;14.15;6.12;;;33.10;93.30;;;;;;1870228;76;21534;-74
2023/06/11 10:16:12;;;;;;;12.65;4.90;;;33.00;93.60;;;;;;1818044;78;21107;-71
2023/06/11 10:18:43;;;;;;;8.68;5.53;;;33.00;93.60;;;;;;1822716;78;21611;-72
2023/06/11 10:21:14;;;;;;;11.75;5.40;;;33.00;93.40;;;;;;1830043;76;21546;-73
2023/06/11 10:23:48;;;;;;;8.33;5.30;;;33.00;93.40;;;;;;1828005;78;21112;-72
2023/06/11 10:26:19;;;;;;;7.75;4.90;;;32.90;92.90;;;;;;1852625;76;21154;-74
2023/06/11 10:28:56;;;;;;;12.33;5.53;;;32.90;93.40;;;;;;1830094;76;21117;-75
2023/06/11 10:31:28;;;;;;;8.53;5.40;;;32.90;93.40;;;;;;1862469;76;21122;-72
2023/06/11 10:34:05;;;;;;;8.40;5.05;;;32.90;93.50;;;;;;1853336;76;21209;-72
2023/06/11 10:36:40;;;;;;;10.75;5.70;;;32.90;93.40;;;;;;1844912;77;21078;-72
2023/06/11 10:39:14;;;;;;;8.55;5.50;;;32.80;93.40;;;;;;1855980;76;21064;-73
2023/06/11 10:41:45;;;;;;;12.88;6.20;;;32.80;93.20;;;;;;1836532;76;21104;-73
2023/06/11 10:44:17;;;;;;;9.13;5.60;;;32.80;93.60;;;;;;1848385;76;21613;-73
2023/06/11 10:46:53;;;;;;;9.48;5.67;;;32.80;93.50;;;;;;1826967;77;21119;-71
2023/06/11 10:49:26;;;;;;;14.85;6.75;;;32.80;93.70;;;;;;1822553;76;21159;-72
2023/06/11 10:51:57;;;;;;;11.33;5.85;;;32.80;93.70;;;;;;1843807;76;21158;-72
2023/06/11 10:54:30;;;;;;;13.30;6.75;;;32.80;93.90;;;;;;1838219;78;21162;-73
2023/06/11 10:57:07;;;;;;;13.93;6.80;;;32.80;94.00;;;;;;1844265;77;21072;-72
2023/06/11 10:59:38;;;;;;;10.72;5.65;;;32.70;94.00;;;;;;1856324;76;21197;-73
2023/06/11 11:02:14;;;;;;;8.98;5.35;;;32.70;93.60;;;;;;1816980;78;21087;-73
2023/06/11 11:04:53;;;;;;;9.08;5.97;;;32.70;93.80;;;;;;1822992;76;21102;-73
2023/06/11 11:07:26;;;;;;;10.68;5.35;;;32.70;94.00;;;;;;1835065;76;21071;-72
2023/06/11 11:09:59;;;;;;;12.43;6.33;;;32.70;93.90;;;;;;1854844;76;21125;-72
2023/06/11 11:12:42;;;;;;;11.10;6.12;;;32.70;94.10;;;;;;1873016;76;21141;-74
2023/06/11 11:15:13;;;;;;;10.93;5.75;;;32.70;94.20;;;;;;1867790;76;21083;-73
2023/06/11 11:17:46;;;;;;;7.72;5.87;;;32.60;94.30;;;;;;1843848;77;21075;-73
2023/06/11 11:20:19;;;;;;;12.68;6.30;;;32.60;94.30;;;;;;1851551;76;21617;-72
2023/06/11 11:22:56;;;;;;;12.45;6.60;;;32.60;94.20;;;;;;1861548;76;21052;-71
2023/06/11 11:25:29;;;;;;;8.18;5.90;;;32.50;94.50;;;;;;1851489;76;21196;-72
2023/06/11 11:28:00;;;;;;;9.65;6.15;;;32.50;94.20;;;;;;1807678;79;21180;-72
2023/06/11 11:30:32;;;;;;;12.15;6.05;;;32.50;94.40;;;;;;1856257;76;21158;-72
2023/06/11 11:33:03;;;;;;;12.65;6.03;;;32.50;94.60;;;;;;1852718;76;21127;-72
2023/06/11 11:35:36;;;;;;;10.80;5.78;;;32.50;94.70;;;;;;1847730;76;21185;-71
2023/06/11 11:38:07;;;;;;;10.13;6.08;;;32.40;94.10;;;;;;1845073;77;21609;-71
2023/06/11 11:40:39;;;;;;;7.92;5.60;;;32.40;94.30;;;;;;1845669;77;21142;-71
2023/06/11 11:43:16;;;;;;;11.08;6.37;;;32.40;94.10;;;;;;1839971;77;21088;-73
2023/06/11 11:45:48;;;;;;;9.90;6.22;;;32.30;94.20;;;;;;1845051;77;21135;-72
2023/06/11 11:48:19;;;;;;;7.75;5.75;;;32.40;94.20;;;;;;1849667;77;21170;-71
2023/06/11 11:50:53;;;;;;;8.08;6.28;;;32.30;94.10;;;;;;1854506;76;21148;-72
2023/06/11 11:53:29;;;;;;;8.15;6.28;;;32.30;94.20;;;;;;1837129;77;21078;-71
2023/06/11 11:55:59;;;;;;;11.35;6.50;;;32.30;94.40;;;;;;1851912;77;21138;-73
2023/06/11 11:58:37;;;;;;;10.28;6.12;;;32.20;94.30;;;;;;1848491;77;21202;-71
2023/06/11 12:01:10;;;;;;;8.98;6.33;;;32.20;94.50;;;;;;1852233;76;21217;-74
2023/06/11 12:03:42;;;;;;;12.10;7.10;;;32.30;94.50;;;;;;1844585;77;21190;-72
2023/06/11 12:06:13;;;;;;;12.82;6.15;;;32.20;94.70;;;;;;1854585;76;21103;-71
2023/06/11 12:08:45;;;;;;;9.80;6.28;;;32.20;94.60;;;;;;1861541;76;21095;-71
2023/06/11 12:11:16;;;;;;;7.87;6.47;;;32.10;94.60;;;;;;1844642;77;21088;-71
2023/06/11 12:13:47;;;;;;;8.93;6.45;;;32.20;94.90;;;;;;1844321;77;21555;-71
2023/06/11 12:16:20;;;;;;;12.53;7.22;;;32.10;94.90;;;;;;1828736;78;21185;-75
2023/06/11 12:18:52;;;;;;;11.50;7.80;;;32.10;95.00;;;;;;1850705;77;21080;-73
2023/06/11 12:21:25;;;;;;;12.20;7.50;;;32.10;95.10;;;;;;1862614;75;21107;-74
2023/06/11 12:23:56;;;;;;;10.68;7.22;;;32.10;95.30;;;;;;1837863;77;21152;-72
2023/06/11 12:26:27;;;;;;;13.05;8.08;;;32.10;95.80;;;;;;1845122;77;21214;-72
2023/06/11 12:29:00;;;;;;;13.20;8.55;;;32.10;95.50;;;;;;1825606;77;21198;-72
2023/06/11 12:31:31;;;;;;;17.50;8.68;;;32.10;95.60;;;;;;1855354;76;21154;-72
2023/06/11 12:34:02;;;;;;;14.07;8.85;;;32.10;95.70;;;;;;1805001;78;21554;-71
2023/06/11 12:36:34;;;;;;;14.43;8.63;;;32.00;95.60;;;;;;1813998;78;21504;-72
2023/06/11 12:39:09;;;;;;;12.00;8.95;;;32.00;95.70;;;;;;1857320;76;21265;-72
2023/06/11 12:41:41;;;;;;;15.93;8.10;;;32.00;95.80;;;;;;1844592;76;21095;-72
2023/06/11 12:44:13;;;;;;;13.30;9.00;;;32.00;95.90;;;;;;1846414;76;21155;-71
2023/06/11 12:46:44;;;;;;;13.43;9.00;;;32.00;95.90;;;;;;1858153;76;21155;-72
2023/06/11 12:49:16;;;;;;;15.05;9.28;;;32.00;96.00;;;;;;1867060;76;21179;-73
2023/06/11 12:51:48;;;;;;;13.28;9.15;;;32.00;95.90;;;;;;1855119;76;21530;-72
2023/06/11 12:54:23;;;;;;;16.23;10.65;;;31.90;96.00;;;;;;1844900;76;21145;-75
2023/06/11 12:56:53;;;;;;;15.70;10.18;;;31.90;96.00;;;;;;1845941;76;22223;-73
2023/06/11 12:59:26;;;;;;;15.20;9.43;;;32.00;96.10;;;;;;1852589;77;21142;-75
2023/06/11 13:01:58;;;;;;;16.12;10.10;;;31.90;96.10;;;;;;1857072;76;21084;-74
2023/06/11 13:04:29;;;;;;;15.40;9.75;;;31.90;96.00;;;;;;1814328;79;21148;-72
2023/06/11 13:07:01;;;;;;;13.30;9.03;;;31.90;96.00;;;;;;1863116;76;21105;-73